sensor_id;sensor_type;location;lat;lon;timestamp;P1;durP1;ratioP1;P2;durP2;ratioP2
13469;SDS011;6807;48.682;9.032;2023-02-14T05:57:09;32.65;;;15.32;;
13469;SDS011;6807;48.682;9.032;2023-02-14T05:59:41;29.10;;;16.13;;
13469;SDS011;6807;48.682;9.032;2023-02-14T06:02:08;27.55;;;15.00;;
13469;SDS011;6807;48.682;9.032;2023-02-14T06:04:52;28.38;;;14.55;;
13469;SDS011;6807;48.682;9.032;2023-02-14T06:07:21;25.38;;;14.23;;
13469;SDS011;6807;48.682;9.032;2023-02-14T06:09:48;28.35;;;14.73;;
13469;SDS011;6807;48.682;9.032;2023-02-14T06:12:24;28.17;;;14.30;;
13469;SDS011;6807;48.682;9.032;2023-02-14T06:14:52;25.40;;;14.38;;
13469;SDS011;6807;48.682;9.032;2023-02-14T06:17:19;27.42;;;14.57;;
13469;SDS011;6807;48.682;9.032;2023-02-14T06:19:46;35.80;;;16.70;;
13469;SDS011;6807;48.682;9.032;2023-02-14T06:22:19;28.77;;;15.45;;
13469;SDS011;6807;48.682;9.032;2023-02-14T12:14:20;10.82;;;8.02;;
13469;SDS011;6807;48.682;9.032;2023-02-14T12:16:51;11.80;;;8.50;;
13469;SDS011;6807;48.682;9.032;2023-02-14T12:19:29;9.32;;;8.10;;
13469;SDS011;6807;48.682;9.032;2023-02-14T12:22:07;9.05;;;8.00;;
13469;SDS011;6807;48.682;9.032;2023-02-14T12:25:21;10.15;;;8.85;;
13469;SDS011;6807;48.682;9.032;2023-02-14T12:27:59;12.13;;;8.13;;
13469;SDS011;6807;48.682;9.032;2023-02-14T12:33:50;10.38;;;8.80;;
13469;SDS011;6807;48.682;9.032;2023-02-14T12:36:23;9.02;;;8.10;;
13469;SDS011;6807;48.682;9.032;2023-02-14T12:39:01;8.73;;;7.47;;
13469;SDS011;6807;48.682;9.032;2023-02-14T12:41:35;9.43;;;8.43;;
13469;SDS011;6807;48.682;9.032;2023-02-14T12:44:17;8.38;;;7.55;;
13469;SDS011;6807;48.682;9.032;2023-02-14T12:47:13;9.00;;;7.40;;
13469;SDS011;6807;48.682;9.032;2023-02-14T12:49:55;8.27;;;7.43;;
13469;SDS011;6807;48.682;9.032;2023-02-14T12:52:41;7.60;;;6.90;;
13469;SDS011;6807;48.682;9.032;2023-02-14T12:55:31;9.57;;;7.82;;
13469;SDS011;6807;48.682;9.032;2023-02-14T12:58:10;7.63;;;6.72;;
13469;SDS011;6807;48.682;9.032;2023-02-14T13:00:49;9.90;;;7.38;;
13469;SDS011;6807;48.682;9.032;2023-02-14T13:03:53;7.88;;;7.07;;
13469;SDS011;6807;48.682;9.032;2023-02-14T13:07:02;8.80;;;6.55;;
13469;SDS011;6807;48.682;9.032;2023-02-14T13:09:38;6.55;;;5.95;;
13469;SDS011;6807;48.682;9.032;2023-02-14T13:12:28;8.73;;;5.93;;
13469;SDS011;6807;48.682;9.032;2023-02-14T13:15:03;8.45;;;6.32;;
13469;SDS011;6807;48.682;9.032;2023-02-14T13:24:33;6.97;;;5.95;;
13469;SDS011;6807;48.682;9.032;2023-02-14T13:33:47;7.32;;;6.60;;
13469;SDS011;6807;48.682;9.032;2023-02-14T13:43:47;8.07;;;6.63;;
13469;SDS011;6807;48.682;9.032;2023-02-14T13:46:21;8.15;;;6.97;;
13469;SDS011;6807;48.682;9.032;2023-02-14T13:49:19;8.27;;;6.78;;
13469;SDS011;6807;48.682;9.032;2023-02-14T13:55:15;7.95;;;6.95;;
13469;SDS011;6807;48.682;9.032;2023-02-14T13:57:45;7.90;;;7.10;;
13469;SDS011;6807;48.682;9.032;2023-02-14T14:00:38;12.60;;;7.75;;
13469;SDS011;6807;48.682;9.032;2023-02-14T14:03:11;8.38;;;6.85;;
13469;SDS011;6807;48.682;9.032;2023-02-14T14:08:38;10.25;;;8.07;;
13469;SDS011;6807;48.682;9.032;2023-02-14T14:11:12;10.73;;;7.97;;
13469;SDS011;6807;48.682;9.032;2023-02-14T14:24:39;12.35;;;9.00;;
13469;SDS011;6807;48.682;9.032;2023-02-14T14:27:18;12.70;;;8.80;;
13469;SDS011;6807;48.682;9.032;2023-02-14T14:29:49;20.73;;;9.07;;
13469;SDS011;6807;48.682;9.032;2023-02-14T14:32:20;13.73;;;8.35;;
13469;SDS011;6807;48.682;9.032;2023-02-14T14:34:53;112.75;;;15.63;;
13469;SDS011;6807;48.682;9.032;2023-02-14T14:37:22;21.05;;;9.07;;
13469;SDS011;6807;48.682;9.032;2023-02-14T14:42:45;12.98;;;9.95;;
13469;SDS011;6807;48.682;9.032;2023-02-14T14:45:25;14.52;;;9.80;;
13469;SDS011;6807;48.682;9.032;2023-02-14T14:47:58;13.27;;;9.52;;
13469;SDS011;6807;48.682;9.032;2023-02-14T14:50:35;11.18;;;9.38;;
13469;SDS011;6807;48.682;9.032;2023-02-14T14:53:04;14.45;;;9.75;;
13469;SDS011;6807;48.682;9.032;2023-02-14T14:55:45;13.88;;;10.13;;
13469;SDS011;6807;48.682;9.032;2023-02-14T15:01:27;14.00;;;9.43;;
13469;SDS011;6807;48.682;9.032;2023-02-14T15:04:08;15.43;;;9.27;;
13469;SDS011;6807;48.682;9.032;2023-02-14T15:06:35;14.32;;;9.52;;
13469;SDS011;6807;48.682;9.032;2023-02-14T15:09:12;11.80;;;9.13;;
13469;SDS011;6807;48.682;9.032;2023-02-14T15:11:45;13.90;;;9.05;;
13469;SDS011;6807;48.682;9.032;2023-02-14T15:14:32;11.10;;;9.50;;
13469;SDS011;6807;48.682;9.032;2023-02-14T15:17:02;13.80;;;9.80;;
13469;SDS011;6807;48.682;9.032;2023-02-14T15:19:38;13.82;;;8.77;;
13469;SDS011;6807;48.682;9.032;2023-02-14T15:22:19;14.07;;;9.73;;
13469;SDS011;6807;48.682;9.032;2023-02-14T15:25:09;10.90;;;8.57;;
13469;SDS011;6807;48.682;9.032;2023-02-14T15:27:46;13.45;;;10.35;;
13469;SDS011;6807;48.682;9.032;2023-02-14T15:35:56;13.40;;;9.82;;
13469;SDS011;6807;48.682;9.032;2023-02-14T15:38:28;14.55;;;10.55;;
13469;SDS011;6807;48.682;9.032;2023-02-14T15:40:57;13.98;;;10.38;;
13469;SDS011;6807;48.682;9.032;2023-02-14T15:43:29;14.82;;;10.50;;
13469;SDS011;6807;48.682;9.032;2023-02-14T15:46:14;17.83;;;10.48;;
13469;SDS011;6807;48.682;9.032;2023-02-14T15:48:49;13.57;;;9.57;;
13469;SDS011;6807;48.682;9.032;2023-02-14T15:51:18;12.98;;;10.30;;
13469;SDS011;6807;48.682;9.032;2023-02-14T15:53:48;14.40;;;10.15;;
13469;SDS011;6807;48.682;9.032;2023-02-14T15:56:17;12.77;;;9.85;;
13469;SDS011;6807;48.682;9.032;2023-02-14T15:58:56;17.67;;;10.57;;
13469;SDS011;6807;48.682;9.032;2023-02-14T16:01:39;15.10;;;11.00;;
13469;SDS011;6807;48.682;9.032;2023-02-14T16:04:06;15.32;;;10.73;;
13469;SDS011;6807;48.682;9.032;2023-02-14T16:06:36;16.33;;;10.98;;
13469;SDS011;6807;48.682;9.032;2023-02-14T16:09:22;17.80;;;10.52;;
13469;SDS011;6807;48.682;9.032;2023-02-14T16:11:55;16.52;;;11.38;;
13469;SDS011;6807;48.682;9.032;2023-02-14T16:14:30;15.45;;;11.15;;
13469;SDS011;6807;48.682;9.032;2023-02-14T16:17:01;19.95;;;11.88;;
13469;SDS011;6807;48.682;9.032;2023-02-14T16:19:33;15.20;;;10.95;;
13469;SDS011;6807;48.682;9.032;2023-02-14T16:22:02;19.25;;;11.45;;
13469;SDS011;6807;48.682;9.032;2023-02-14T16:24:31;19.10;;;11.95;;
13469;SDS011;6807;48.682;9.032;2023-02-14T16:26:58;14.55;;;11.23;;
13469;SDS011;6807;48.682;9.032;2023-02-14T16:29:34;20.75;;;11.75;;
13469;SDS011;6807;48.682;9.032;2023-02-14T16:32:08;18.73;;;12.15;;
13469;SDS011;6807;48.682;9.032;2023-02-14T16:34:37;21.05;;;12.63;;
13469;SDS011;6807;48.682;9.032;2023-02-14T16:37:06;17.98;;;12.05;;
13469;SDS011;6807;48.682;9.032;2023-02-14T16:39:46;18.98;;;12.15;;
13469;SDS011;6807;48.682;9.032;2023-02-14T16:42:14;19.77;;;12.65;;
13469;SDS011;6807;48.682;9.032;2023-02-14T16:44:47;17.70;;;12.68;;
13469;SDS011;6807;48.682;9.032;2023-02-14T16:47:16;18.25;;;13.23;;
13469;SDS011;6807;48.682;9.032;2023-02-14T16:49:44;19.63;;;11.40;;
13469;SDS011;6807;48.682;9.032;2023-02-14T16:52:12;18.83;;;11.40;;
13469;SDS011;6807;48.682;9.032;2023-02-14T16:54:43;21.98;;;11.15;;
13469;SDS011;6807;48.682;9.032;2023-02-14T16:57:15;17.25;;;10.52;;
13469;SDS011;6807;48.682;9.032;2023-02-14T16:59:50;16.13;;;11.23;;
13469;SDS011;6807;48.682;9.032;2023-02-14T17:02:26;18.48;;;12.05;;
13469;SDS011;6807;48.682;9.032;2023-02-14T17:05:02;19.20;;;11.82;;
13469;SDS011;6807;48.682;9.032;2023-02-14T17:07:30;20.25;;;12.25;;
13469;SDS011;6807;48.682;9.032;2023-02-14T17:10:00;20.20;;;13.02;;
13469;SDS011;6807;48.682;9.032;2023-02-14T17:12:30;21.63;;;12.27;;
13469;SDS011;6807;48.682;9.032;2023-02-14T17:15:03;21.08;;;12.20;;
13469;SDS011;6807;48.682;9.032;2023-02-14T17:17:34;20.92;;;12.85;;
13469;SDS011;6807;48.682;9.032;2023-02-14T17:20:03;21.98;;;12.40;;
13469;SDS011;6807;48.682;9.032;2023-02-14T17:22:32;20.55;;;12.15;;
13469;SDS011;6807;48.682;9.032;2023-02-14T17:25:00;18.48;;;12.70;;
13469;SDS011;6807;48.682;9.032;2023-02-14T17:27:28;19.67;;;13.00;;
13469;SDS011;6807;48.682;9.032;2023-02-14T17:29:56;25.20;;;12.88;;
13469;SDS011;6807;48.682;9.032;2023-02-14T17:32:24;20.45;;;11.85;;
13469;SDS011;6807;48.682;9.032;2023-02-14T17:34:53;17.45;;;12.48;;
13469;SDS011;6807;48.682;9.032;2023-02-14T17:37:21;19.60;;;12.25;;
13469;SDS011;6807;48.682;9.032;2023-02-14T17:39:49;26.35;;;14.77;;
13469;SDS011;6807;48.682;9.032;2023-02-14T17:42:19;20.88;;;13.00;;
13469;SDS011;6807;48.682;9.032;2023-02-14T17:44:46;22.65;;;13.30;;
13469;SDS011;6807;48.682;9.032;2023-02-14T17:47:13;24.27;;;16.13;;
13469;SDS011;6807;48.682;9.032;2023-02-14T17:49:46;23.65;;;14.35;;
13469;SDS011;6807;48.682;9.032;2023-02-14T17:52:14;23.05;;;14.93;;
13469;SDS011;6807;48.682;9.032;2023-02-14T17:54:41;24.15;;;14.55;;
13469;SDS011;6807;48.682;9.032;2023-02-14T17:57:08;28.67;;;14.98;;
13469;SDS011;6807;48.682;9.032;2023-02-14T17:59:36;26.35;;;13.73;;
13469;SDS011;6807;48.682;9.032;2023-02-14T18:02:03;23.63;;;13.57;;
13469;SDS011;6807;48.682;9.032;2023-02-14T18:04:33;23.50;;;13.77;;
13469;SDS011;6807;48.682;9.032;2023-02-14T18:07:02;22.70;;;14.05;;
13469;SDS011;6807;48.682;9.032;2023-02-14T18:09:29;22.38;;;13.32;;
13469;SDS011;6807;48.682;9.032;2023-02-14T18:11:58;20.33;;;13.55;;
13469;SDS011;6807;48.682;9.032;2023-02-14T18:14:25;21.40;;;14.52;;
13469;SDS011;6807;48.682;9.032;2023-02-14T18:16:53;21.48;;;12.98;;
13469;SDS011;6807;48.682;9.032;2023-02-14T18:19:20;23.05;;;14.25;;
13469;SDS011;6807;48.682;9.032;2023-02-14T18:21:50;23.67;;;14.27;;
13469;SDS011;6807;48.682;9.032;2023-02-14T18:24:19;24.38;;;15.90;;
13469;SDS011;6807;48.682;9.032;2023-02-14T18:26:46;27.27;;;15.20;;
13469;SDS011;6807;48.682;9.032;2023-02-14T18:29:13;21.80;;;13.05;;
13469;SDS011;6807;48.682;9.032;2023-02-14T18:36:46;23.00;;;13.57;;
13469;SDS011;6807;48.682;9.032;2023-02-14T18:39:13;23.38;;;14.82;;
13469;SDS011;6807;48.682;9.032;2023-02-14T18:41:42;24.73;;;15.07;;
13469;SDS011;6807;48.682;9.032;2023-02-14T18:44:09;24.88;;;14.27;;
13469;SDS011;6807;48.682;9.032;2023-02-14T18:46:37;30.10;;;15.20;;
13469;SDS011;6807;48.682;9.032;2023-02-14T18:49:05;25.77;;;15.95;;
13469;SDS011;6807;48.682;9.032;2023-02-14T18:51:34;24.77;;;16.02;;
13469;SDS011;6807;48.682;9.032;2023-02-14T18:54:03;26.27;;;15.13;;
13469;SDS011;6807;48.682;9.032;2023-02-14T18:56:31;27.10;;;15.38;;
13469;SDS011;6807;48.682;9.032;2023-02-14T18:59:02;23.27;;;14.20;;
13469;SDS011;6807;48.682;9.032;2023-02-14T19:01:31;28.08;;;14.98;;
13469;SDS011;6807;48.682;9.032;2023-02-14T19:04:01;33.45;;;18.00;;
13469;SDS011;6807;48.682;9.032;2023-02-14T19:06:32;32.45;;;17.73;;
13469;SDS011;6807;48.682;9.032;2023-02-14T19:09:14;34.33;;;18.20;;
13469;SDS011;6807;48.682;9.032;2023-02-14T19:11:42;30.02;;;18.48;;
13469;SDS011;6807;48.682;9.032;2023-02-14T19:14:11;36.13;;;19.90;;
13469;SDS011;6807;48.682;9.032;2023-02-14T19:16:40;35.05;;;19.70;;
13469;SDS011;6807;48.682;9.032;2023-02-14T19:19:14;33.80;;;19.60;;
13469;SDS011;6807;48.682;9.032;2023-02-14T19:21:41;31.67;;;18.35;;
13469;SDS011;6807;48.682;9.032;2023-02-14T19:24:09;28.70;;;17.15;;
13469;SDS011;6807;48.682;9.032;2023-02-14T19:26:36;26.73;;;17.02;;
13469;SDS011;6807;48.682;9.032;2023-02-14T19:29:05;37.25;;;23.73;;
13469;SDS011;6807;48.682;9.032;2023-02-14T19:31:36;32.90;;;18.85;;
13469;SDS011;6807;48.682;9.032;2023-02-14T19:34:14;31.13;;;18.10;;
13469;SDS011;6807;48.682;9.032;2023-02-14T19:36:43;27.08;;;17.63;;
13469;SDS011;6807;48.682;9.032;2023-02-14T19:39:12;29.25;;;18.30;;
13469;SDS011;6807;48.682;9.032;2023-02-14T19:41:41;26.95;;;17.55;;
13469;SDS011;6807;48.682;9.032;2023-02-14T19:44:10;34.63;;;19.15;;
13469;SDS011;6807;48.682;9.032;2023-02-14T19:46:41;31.30;;;18.05;;
13469;SDS011;6807;48.682;9.032;2023-02-14T19:49:09;30.42;;;17.52;;
13469;SDS011;6807;48.682;9.032;2023-02-14T19:51:38;32.30;;;18.90;;
13469;SDS011;6807;48.682;9.032;2023-02-14T19:54:06;30.05;;;18.13;;
13469;SDS011;6807;48.682;9.032;2023-02-14T19:56:35;28.73;;;18.20;;
13469;SDS011;6807;48.682;9.032;2023-02-14T19:59:04;39.20;;;25.83;;
13469;SDS011;6807;48.682;9.032;2023-02-14T20:01:45;37.00;;;20.17;;
13469;SDS011;6807;48.682;9.032;2023-02-14T20:04:16;34.53;;;18.33;;
13469;SDS011;6807;48.682;9.032;2023-02-14T20:06:45;35.15;;;19.73;;
13469;SDS011;6807;48.682;9.032;2023-02-14T20:09:12;32.83;;;18.65;;
13469;SDS011;6807;48.682;9.032;2023-02-14T20:11:41;29.90;;;18.65;;
13469;SDS011;6807;48.682;9.032;2023-02-14T20:14:15;32.28;;;19.60;;
13469;SDS011;6807;48.682;9.032;2023-02-14T20:16:45;33.72;;;18.23;;
13469;SDS011;6807;48.682;9.032;2023-02-14T20:19:16;29.92;;;18.27;;
13469;SDS011;6807;48.682;9.032;2023-02-14T20:22:56;35.00;;;19.55;;
13469;SDS011;6807;48.682;9.032;2023-02-14T21:08:29;30.58;;;18.20;;
13469;SDS011;6807;48.682;9.032;2023-02-14T21:47:34;35.00;;;20.23;;
13469;SDS011;6807;48.682;9.032;2023-02-14T21:56:04;67.05;;;35.13;;
13469;SDS011;6807;48.682;9.032;2023-02-14T21:58:51;50.35;;;26.50;;
13469;SDS011;6807;48.682;9.032;2023-02-14T22:01:19;40.70;;;23.05;;
13469;SDS011;6807;48.682;9.032;2023-02-14T22:03:49;45.78;;;22.75;;
13469;SDS011;6807;48.682;9.032;2023-02-14T22:06:16;41.17;;;22.40;;
13469;SDS011;6807;48.682;9.032;2023-02-14T22:08:43;42.65;;;21.75;;
13469;SDS011;6807;48.682;9.032;2023-02-14T22:11:12;35.78;;;20.20;;
13469;SDS011;6807;48.682;9.032;2023-02-14T22:13:41;36.65;;;20.42;;
13469;SDS011;6807;48.682;9.032;2023-02-14T22:16:09;38.05;;;21.50;;
13469;SDS011;6807;48.682;9.032;2023-02-14T22:18:37;37.15;;;20.23;;
13469;SDS011;6807;48.682;9.032;2023-02-14T22:21:06;36.80;;;21.17;;
13469;SDS011;6807;48.682;9.032;2023-02-14T22:23:35;35.45;;;19.23;;
13469;SDS011;6807;48.682;9.032;2023-02-14T22:26:06;39.35;;;20.10;;
13469;SDS011;6807;48.682;9.032;2023-02-14T22:28:37;39.72;;;19.85;;
13469;SDS011;6807;48.682;9.032;2023-02-14T22:31:05;39.90;;;19.98;;
13469;SDS011;6807;48.682;9.032;2023-02-14T22:33:32;38.42;;;20.15;;
13469;SDS011;6807;48.682;9.032;2023-02-14T22:38:35;41.20;;;20.95;;
13469;SDS011;6807;48.682;9.032;2023-02-14T22:41:04;35.78;;;19.13;;
13469;SDS011;6807;48.682;9.032;2023-02-14T22:43:32;38.00;;;19.27;;
13469;SDS011;6807;48.682;9.032;2023-02-14T22:46:03;37.95;;;19.95;;
13469;SDS011;6807;48.682;9.032;2023-02-14T22:48:31;34.78;;;19.60;;
13469;SDS011;6807;48.682;9.032;2023-02-14T22:51:05;34.20;;;18.33;;
13469;SDS011;6807;48.682;9.032;2023-02-14T22:53:40;37.38;;;17.92;;
13469;SDS011;6807;48.682;9.032;2023-02-14T22:56:08;35.67;;;19.52;;
13469;SDS011;6807;48.682;9.032;2023-02-14T22:58:36;35.25;;;18.40;;
13469;SDS011;6807;48.682;9.032;2023-02-14T23:01:03;35.30;;;18.17;;
13469;SDS011;6807;48.682;9.032;2023-02-14T23:03:30;37.72;;;18.00;;
13469;SDS011;6807;48.682;9.032;2023-02-14T23:05:58;34.42;;;17.88;;
13469;SDS011;6807;48.682;9.032;2023-02-14T23:08:27;37.55;;;19.80;;
13469;SDS011;6807;48.682;9.032;2023-02-14T23:10:54;30.88;;;18.35;;
13469;SDS011;6807;48.682;9.032;2023-02-14T23:13:21;32.60;;;18.88;;
13469;SDS011;6807;48.682;9.032;2023-02-14T23:16:05;32.67;;;18.67;;
13469;SDS011;6807;48.682;9.032;2023-02-14T23:18:51;35.55;;;19.00;;
13469;SDS011;6807;48.682;9.032;2023-02-14T23:21:35;36.72;;;18.67;;
13469;SDS011;6807;48.682;9.032;2023-02-14T23:24:22;33.05;;;17.42;;
13469;SDS011;6807;48.682;9.032;2023-02-14T23:26:49;30.13;;;17.90;;
13469;SDS011;6807;48.682;9.032;2023-02-14T23:29:19;30.95;;;16.75;;
13469;SDS011;6807;48.682;9.032;2023-02-14T23:31:46;31.52;;;16.63;;
13469;SDS011;6807;48.682;9.032;2023-02-14T23:34:13;30.65;;;15.52;;
13469;SDS011;6807;48.682;9.032;2023-02-14T23:36:40;35.97;;;16.92;;
13469;SDS011;6807;48.682;9.032;2023-02-14T23:39:07;33.20;;;16.70;;
13469;SDS011;6807;48.682;9.032;2023-02-14T23:41:35;31.33;;;16.17;;
13469;SDS011;6807;48.682;9.032;2023-02-14T23:44:14;32.30;;;15.55;;
13469;SDS011;6807;48.682;9.032;2023-02-14T23:46:42;34.30;;;16.85;;
13469;SDS011;6807;48.682;9.032;2023-02-14T23:49:10;30.60;;;16.13;;
13469;SDS011;6807;48.682;9.032;2023-02-14T23:51:38;35.03;;;16.67;;
13469;SDS011;6807;48.682;9.032;2023-02-14T23:54:06;29.27;;;16.58;;
13469;SDS011;6807;48.682;9.032;2023-02-14T23:56:33;34.78;;;18.20;;
13469;SDS011;6807;48.682;9.032;2023-02-14T23:59:02;28.10;;;17.33;;
